Time;durP1;ratioP1;P1;durP2;ratioP2;P2;SDS_P1;SDS_P2;PMS_P1;PMS_P2;Temp;Humidity;BMP_temperature;BMP_pressure;BME280_temperature;BME280_humidity;BME280_pressure;Samples;Min_cycle;Max_cycle;Signal;HPM_P1;HPM_P2
2023/02/23 00:01:40;;;;;;;24.83;17.55;;;12.00;82.50;;;;;;4879775;29;20037;-82
2023/02/23 00:04:06;;;;;;;25.45;17.35;;;11.90;82.50;;;;;;4864268;29;20085;-82
2023/02/23 00:06:34;;;;;;;25.38;17.88;;;11.90;82.50;;;;;;4865245;29;20063;-82
2023/02/23 00:09:01;;;;;;;23.70;17.52;;;11.90;82.50;;;;;;4881340;29;20039;-83
2023/02/23 00:11:27;;;;;;;25.05;18.58;;;11.90;82.50;;;;;;4864259;29;20033;-83
2023/02/23 00:13:55;;;;;;;24.58;17.55;;;11.90;82.50;;;;;;4848750;29;20178;-83
2023/02/23 00:16:23;;;;;;;22.70;17.38;;;11.90;82.50;;;;;;4864714;29;20041;-83
2023/02/23 00:18:55;;;;;;;24.38;17.88;;;11.90;82.50;;;;;;4882422;29;20035;-83
2023/02/23 00:21:30;;;;;;;25.42;18.10;;;11.90;82.50;;;;;;4867107;29;20105;-84
2023/02/23 00:23:58;;;;;;;26.42;17.85;;;11.90;82.60;;;;;;4880504;29;20049;-84
2023/02/23 00:26:29;;;;;;;24.90;16.75;;;11.90;82.60;;;;;;4881649;29;20382;-83
2023/02/23 00:28:56;;;;;;;23.40;17.85;;;11.90;82.50;;;;;;4866413;29;20040;-82
2023/02/23 00:31:26;;;;;;;25.33;17.90;;;11.80;82.50;;;;;;4879682;29;20489;-83
2023/02/23 00:33:57;;;;;;;25.08;16.50;;;11.80;82.50;;;;;;4879767;29;20482;-83
2023/02/23 00:36:25;;;;;;;23.35;17.27;;;11.80;82.60;;;;;;4880366;29;20097;-83
2023/02/23 00:38:57;;;;;;;24.05;17.08;;;11.80;82.60;;;;;;4864663;29;20040;-83
2023/02/23 00:41:27;;;;;;;24.20;17.80;;;11.80;82.60;;;;;;4879207;29;20138;-83
2023/02/23 00:43:58;;;;;;;25.35;17.30;;;11.80;82.50;;;;;;4864670;29;20474;-83
2023/02/23 00:46:28;;;;;;;23.00;17.13;;;11.80;82.50;;;;;;4864104;29;20033;-83
2023/02/23 00:48:56;;;;;;;24.13;17.05;;;11.80;82.60;;;;;;4879104;29;20471;-83
2023/02/23 00:51:25;;;;;;;23.30;16.98;;;11.80;82.60;;;;;;4863585;29;20033;-83
2023/02/23 00:53:55;;;;;;;22.88;16.67;;;11.80;82.60;;;;;;4879596;29;20029;-84
2023/02/23 00:56:21;;;;;;;26.70;18.75;;;11.80;82.60;;;;;;4863473;29;20033;-83
2023/02/23 00:58:48;;;;;;;25.85;18.58;;;11.70;82.60;;;;;;4863626;29;20132;-83
2023/02/23 01:01:14;;;;;;;24.77;17.77;;;11.70;82.60;;;;;;4863510;29;20037;-83
2023/02/23 01:03:42;;;;;;;25.83;17.92;;;11.70;82.60;;;;;;4863767;29;20037;-83
2023/02/23 01:06:11;;;;;;;23.60;17.00;;;11.70;82.60;;;;;;4863436;29;20377;-83
2023/02/23 01:08:40;;;;;;;25.25;17.42;;;11.70;83.20;;;;;;4863613;29;20128;-82
2023/02/23 01:11:08;;;;;;;24.05;17.65;;;11.70;82.60;;;;;;4881446;29;20021;-82
2023/02/23 01:13:35;;;;;;;25.45;17.95;;;11.70;82.60;;;;;;4882742;29;20040;-82
2023/02/23 01:16:13;;;;;;;25.10;18.48;;;11.70;82.50;;;;;;4867646;29;20474;-82
2023/02/23 01:18:41;;;;;;;24.83;17.25;;;11.70;82.60;;;;;;4882811;29;20493;-83
2023/02/23 01:21:23;;;;;;;24.00;16.90;;;11.70;82.60;;;;;;4867328;29;20033;-83
2023/02/23 01:23:50;;;;;;;24.83;17.75;;;11.70;82.60;;;;;;4882804;29;20100;-82
2023/02/23 01:26:22;;;;;;;25.08;18.15;;;11.70;82.60;;;;;;4882710;29;20112;-83
2023/02/23 01:28:49;;;;;;;22.98;16.75;;;11.70;82.60;;;;;;4883443;29;20052;-83
2023/02/23 01:31:17;;;;;;;22.98;16.65;;;11.70;82.60;;;;;;4882372;29;20516;-83
2023/02/23 01:33:42;;;;;;;24.73;16.73;;;11.60;82.50;;;;;;4883808;29;20454;-82
2023/02/23 01:36:08;;;;;;;23.75;16.63;;;11.60;82.50;;;;;;4866777;29;20036;-82
2023/02/23 01:38:34;;;;;;;21.38;15.95;;;11.60;82.50;;;;;;4882734;29;20044;-82
2023/02/23 01:41:00;;;;;;;25.05;17.88;;;11.70;82.60;;;;;;4882173;29;20029;-83
2023/02/23 01:43:26;;;;;;;24.10;16.90;;;11.60;82.50;;;;;;4866371;29;20037;-83
2023/02/23 01:45:54;;;;;;;24.27;16.20;;;11.70;82.60;;;;;;4882056;29;20525;-82
2023/02/23 01:48:36;;;;;;;24.42;16.88;;;11.60;82.50;;;;;;4882241;29;20067;-83
2023/02/23 01:51:08;;;;;;;22.98;15.68;;;11.60;82.60;;;;;;4866488;29;20033;-83
2023/02/23 01:53:40;;;;;;;22.70;15.60;;;11.60;82.50;;;;;;4866758;29;20116;-83
2023/02/23 01:56:15;;;;;;;20.95;15.63;;;11.60;82.60;;;;;;4881860;29;20044;-83
2023/02/23 01:58:46;;;;;;;24.80;16.48;;;11.60;82.60;;;;;;4881697;29;20049;-82
2023/02/23 02:01:13;;;;;;;23.05;16.55;;;11.60;82.60;;;;;;4882084;29;20033;-82
2023/02/23 02:03:43;;;;;;;24.40;16.80;;;11.60;82.50;;;;;;4881711;29;20478;-82
2023/02/23 02:06:13;;;;;;;24.95;18.13;;;11.60;82.60;;;;;;4866917;29;20397;-82
2023/02/23 02:08:45;;;;;;;24.02;16.92;;;11.60;82.60;;;;;;4881760;29;20025;-83
2023/02/23 02:11:28;;;;;;;22.70;16.45;;;11.60;82.60;;;;;;4881724;29;20037;-83
2023/02/23 02:14:11;;;;;;;22.48;16.45;;;11.60;82.50;;;;;;4866863;29;20033;-82
2023/02/23 02:17:02;;;;;;;23.48;15.43;;;11.60;82.60;;;;;;4882378;29;20029;-83
2023/02/23 02:19:52;;;;;;;23.00;16.23;;;11.60;82.60;;;;;;4881752;29;20029;-83
2023/02/23 02:22:33;;;;;;;21.65;15.85;;;11.60;82.60;;;;;;4865926;29;20474;-83
2023/02/23 02:25:14;;;;;;;23.20;16.05;;;11.60;82.50;;;;;;4866220;29;20335;-83
2023/02/23 02:28:16;;;;;;;22.55;17.35;;;11.50;82.50;;;;;;4866171;29;20033;-83
2023/02/23 02:31:22;;;;;;;20.38;15.43;;;11.50;82.60;;;;;;4865816;29;20087;-83
2023/02/23 02:34:00;;;;;;;19.50;13.88;;;11.50;82.60;;;;;;4866110;29;20040;-83
2023/02/23 02:36:46;;;;;;;20.60;14.88;;;11.50;82.50;;;;;;4881766;29;20033;-82
2023/02/23 02:39:33;;;;;;;22.23;15.80;;;11.50;82.60;;;;;;4881703;29;20040;-82
2023/02/23 02:42:28;;;;;;;22.42;15.48;;;11.50;82.50;;;;;;4881274;29;20139;-83
2023/02/23 02:44:54;;;;;;;21.15;15.52;;;11.50;82.60;;;;;;4881812;29;20051;-83
2023/02/23 02:47:29;;;;;;;22.63;15.55;;;11.50;82.50;;;;;;4865190;29;20439;-82
2023/02/23 02:50:21;;;;;;;23.77;16.40;;;11.50;82.60;;;;;;4881498;29;20355;-82
2023/02/23 02:52:56;;;;;;;21.17;15.02;;;11.50;82.60;;;;;;4880946;29;20026;-82
2023/02/23 02:55:33;;;;;;;20.30;15.45;;;11.50;82.60;;;;;;4881767;29;20474;-82
2023/02/23 02:58:02;;;;;;;21.30;14.90;;;11.50;82.60;;;;;;4880735;29;20067;-82
2023/02/23 04:18:25;;;;;;;19.95;13.95;;;11.30;82.60;;;;;;4879923;29;20490;-82
2023/02/23 04:20:51;;;;;;;17.20;13.40;;;11.30;82.60;;;;;;4879346;29;20089;-83
2023/02/23 04:23:17;;;;;;;20.35;14.68;;;11.30;82.60;;;;;;4864100;29;20037;-82
2023/02/23 04:25:43;;;;;;;21.17;14.80;;;11.30;82.70;;;;;;4864612;29;20521;-82
2023/02/23 04:28:09;;;;;;;20.90;15.02;;;11.30;82.70;;;;;;4848765;29;20025;-82
2023/02/23 04:30:35;;;;;;;19.42;14.68;;;11.30;82.70;;;;;;4879360;29;20033;-83
2023/02/23 04:33:01;;;;;;;19.70;14.52;;;11.30;82.60;;;;;;4863737;29;20037;-83
2023/02/23 04:35:28;;;;;;;24.55;16.65;;;11.30;82.60;;;;;;4863965;29;20036;-82
2023/02/23 04:37:54;;;;;;;21.30;15.10;;;11.30;82.60;;;;;;4848695;29;20113;-82
2023/02/23 04:40:20;;;;;;;21.80;15.02;;;11.30;82.60;;;;;;4863955;29;20029;-83
2023/02/23 04:42:46;;;;;;;19.23;14.75;;;11.30;82.60;;;;;;4880323;29;20068;-83
2023/02/23 04:45:12;;;;;;;20.58;14.75;;;11.30;82.60;;;;;;4880590;29;20100;-82
2023/02/23 04:47:37;;;;;;;22.48;14.82;;;11.30;82.60;;;;;;4879104;29;20037;-83
2023/02/23 04:50:04;;;;;;;20.40;14.73;;;11.30;82.60;;;;;;4879752;29;20033;-82
2023/02/23 04:52:30;;;;;;;20.70;15.25;;;11.30;82.60;;;;;;4848300;29;20044;-82
2023/02/23 04:54:56;;;;;;;19.63;14.15;;;11.30;82.60;;;;;;4863846;29;20033;-83
2023/02/23 04:57:22;;;;;;;21.20;15.25;;;11.30;82.60;;;;;;4879081;29;20027;-83
2023/02/23 04:59:47;;;;;;;19.33;13.68;;;11.30;82.60;;;;;;4863732;29;20144;-82
2023/02/23 05:02:13;;;;;;;21.20;15.38;;;11.30;82.60;;;;;;4863817;29;20085;-84
2023/02/23 05:04:39;;;;;;;20.73;15.00;;;11.30;82.60;;;;;;4879303;29;20037;-82
2023/02/23 05:07:05;;;;;;;19.85;14.32;;;11.30;82.60;;;;;;4879016;29;20029;-81
2023/02/23 05:09:31;;;;;;;23.02;15.95;;;11.30;82.60;;;;;;4863598;29;20037;-81
2023/02/23 05:11:57;;;;;;;21.17;15.05;;;11.30;82.70;;;;;;4878980;29;20112;-81
2023/02/23 05:14:23;;;;;;;22.30;15.48;;;11.30;82.60;;;;;;4848117;29;20045;-82
2023/02/23 05:16:48;;;;;;;22.05;14.93;;;11.30;82.60;;;;;;4879170;29;20037;-82
2023/02/23 05:19:14;;;;;;;20.40;14.00;;;11.30;82.60;;;;;;4863886;29;20068;-82
2023/02/23 05:21:40;;;;;;;21.88;15.05;;;11.30;82.60;;;;;;4878884;29;20100;-82
2023/02/23 05:24:07;;;;;;;20.35;14.48;;;11.30;82.60;;;;;;4863328;29;20034;-82
2023/02/23 05:26:33;;;;;;;21.70;14.88;;;11.30;82.70;;;;;;4879005;29;20025;-81
2023/02/23 05:28:59;;;;;;;23.08;15.52;;;11.30;82.70;;;;;;4848045;29;20089;-82
2023/02/23 05:31:27;;;;;;;21.73;15.38;;;11.30;82.70;;;;;;4879079;29;20025;-81
2023/02/23 05:33:52;;;;;;;21.52;15.38;;;11.30;82.70;;;;;;4878892;29;20041;-83
2023/02/23 05:36:20;;;;;;;18.60;13.85;;;11.30;82.70;;;;;;4863446;29;20029;-83
2023/02/23 05:38:47;;;;;;;19.65;13.82;;;11.20;82.60;;;;;;4863394;29;20208;-83
2023/02/23 05:41:16;;;;;;;19.10;14.52;;;11.20;82.60;;;;;;4878472;29;20025;-83
2023/02/23 05:43:42;;;;;;;19.63;14.38;;;11.30;82.70;;;;;;4879109;29;20531;-83
2023/02/23 05:46:14;;;;;;;21.65;15.55;;;11.20;82.60;;;;;;4863045;29;20029;-83
2023/02/23 05:48:41;;;;;;;20.42;14.85;;;11.20;82.60;;;;;;4878758;29;20029;-83
2023/02/23 05:51:09;;;;;;;21.45;14.73;;;11.30;82.70;;;;;;4878550;29;20021;-82
2023/02/23 05:53:37;;;;;;;20.25;14.45;;;11.20;82.60;;;;;;4880815;29;20053;-82
2023/02/23 05:56:05;;;;;;;20.33;13.80;;;11.20;82.60;;;;;;4879114;29;20040;-83
2023/02/23 05:58:31;;;;;;;20.13;14.30;;;11.20;83.30;;;;;;4883361;29;20088;-83
2023/02/23 06:00:57;;;;;;;20.77;15.13;;;11.20;82.70;;;;;;4866468;29;20431;-82
2023/02/23 06:03:23;;;;;;;20.80;14.52;;;11.20;82.70;;;;;;4882072;29;20497;-82
2023/02/23 06:05:53;;;;;;;20.63;14.25;;;11.20;82.60;;;;;;4866593;29;20033;-82
2023/02/23 06:08:19;;;;;;;21.17;15.50;;;11.20;82.70;;;;;;4877675;29;20113;-82
2023/02/23 06:10:46;;;;;;;21.35;14.68;;;11.20;82.70;;;;;;4851750;29;20458;-83
2023/02/23 06:13:12;;;;;;;22.05;14.85;;;11.20;82.70;;;;;;4866268;29;20048;-88
2023/02/23 06:15:38;;;;;;;19.08;13.90;;;11.20;82.70;;;;;;4881837;29;20021;-85
2023/02/23 06:18:05;;;;;;;20.40;15.05;;;11.20;82.70;;;;;;4882142;29;20040;-83
2023/02/23 06:20:30;;;;;;;20.48;15.45;;;11.20;82.70;;;;;;4881397;29;20066;-83
2023/02/23 06:22:56;;;;;;;19.67;14.35;;;11.20;82.70;;;;;;4881162;29;20076;-82
2023/02/23 06:25:22;;;;;;;19.98;14.52;;;11.20;82.70;;;;;;4866062;29;20033;-83
2023/02/23 06:27:48;;;;;;;19.10;13.85;;;11.20;82.70;;;;;;4881465;29;20025;-83
2023/02/23 06:30:15;;;;;;;21.42;14.88;;;11.20;82.70;;;;;;4881078;29;20157;-86
2023/02/23 06:32:41;;;;;;;19.95;14.38;;;11.20;82.70;;;;;;4881476;29;20097;-84
2023/02/23 06:35:10;;;;;;;21.00;14.43;;;11.20;82.70;;;;;;4866235;29;20025;-83
2023/02/23 06:37:36;;;;;;;20.27;13.73;;;11.20;83.30;;;;;;4865553;29;20085;-83
2023/02/23 06:40:03;;;;;;;20.80;14.13;;;11.10;82.70;;;;;;4881387;29;20037;-83
2023/02/23 06:42:29;;;;;;;22.05;15.25;;;11.10;82.70;;;;;;4866020;29;20029;-82
2023/02/23 06:44:55;;;;;;;20.70;14.23;;;11.20;82.70;;;;;;4881194;29;20049;-82
2023/02/23 06:47:20;;;;;;;20.95;14.38;;;11.10;82.60;;;;;;4865805;29;20032;-85
2023/02/23 06:49:46;;;;;;;20.23;14.55;;;11.10;82.60;;;;;;4881398;29;20032;-85
2023/02/23 06:52:12;;;;;;;21.50;14.73;;;11.10;82.60;;;;;;4865645;29;20413;-84
2023/02/23 06:54:40;;;;;;;19.67;14.52;;;11.10;82.70;;;;;;4880659;29;20064;-84
2023/02/23 06:57:09;;;;;;;20.92;14.77;;;11.10;82.70;;;;;;4865634;29;20033;-82
2023/02/23 06:59:35;;;;;;;19.35;13.75;;;11.10;82.70;;;;;;4865748;29;20053;-82
2023/02/23 07:02:04;;;;;;;19.60;14.15;;;11.10;82.70;;;;;;4880772;29;20164;-82
2023/02/23 07:04:31;;;;;;;19.05;13.70;;;11.10;82.70;;;;;;4865174;29;20386;-82
2023/02/23 07:06:57;;;;;;;18.73;13.23;;;11.10;82.70;;;;;;4880219;29;20078;-83
2023/02/23 07:09:23;;;;;;;20.52;14.23;;;11.10;82.70;;;;;;4880204;29;20404;-82
2023/02/23 07:11:48;;;;;;;19.35;13.32;;;11.10;82.70;;;;;;4880091;29;20029;-83
2023/02/23 07:14:14;;;;;;;21.10;14.80;;;11.10;82.70;;;;;;4880599;29;20033;-82
2023/02/23 07:16:40;;;;;;;18.83;13.23;;;11.10;82.70;;;;;;4864750;29;20033;-83
2023/02/23 07:19:06;;;;;;;18.27;12.73;;;11.10;82.70;;;;;;4880323;29;20071;-82
2023/02/23 07:21:33;;;;;;;20.85;14.75;;;11.10;82.70;;;;;;4865116;29;20056;-83
2023/02/23 07:23:59;;;;;;;19.83;13.55;;;11.10;82.70;;;;;;4880379;29;20037;-82
2023/02/23 07:26:26;;;;;;;19.63;13.57;;;11.10;82.70;;;;;;4880555;29;20052;-83
2023/02/23 07:28:51;;;;;;;21.38;14.27;;;11.10;82.70;;;;;;4865105;29;20097;-83
2023/02/23 07:31:17;;;;;;;19.80;14.35;;;11.10;82.70;;;;;;4879971;29;20433;-82
2023/02/23 07:33:43;;;;;;;18.65;13.15;;;11.00;82.60;;;;;;4880879;29;20033;-82
2023/02/23 07:36:09;;;;;;;19.33;13.35;;;11.10;82.70;;;;;;4864304;29;20490;-82
2023/02/23 07:38:35;;;;;;;19.33;13.45;;;11.00;82.70;;;;;;4879988;29;20040;-81
2023/02/23 07:41:02;;;;;;;21.50;14.50;;;11.10;82.70;;;;;;4865262;29;20060;-82
2023/02/23 07:43:28;;;;;;;20.90;13.57;;;11.00;82.60;;;;;;4880967;29;20040;-83
2023/02/23 07:45:57;;;;;;;19.65;13.88;;;11.00;82.60;;;;;;4880032;29;20025;-82
2023/02/23 07:48:23;;;;;;;21.40;13.70;;;11.00;82.70;;;;;;4864636;29;20139;-82
2023/02/23 07:50:49;;;;;;;20.92;13.88;;;11.00;82.60;;;;;;4864403;29;20021;-82
2023/02/23 07:53:15;;;;;;;18.65;13.60;;;11.00;82.60;;;;;;4879730;29;20132;-81
2023/02/23 07:55:40;;;;;;;19.58;13.90;;;11.00;82.70;;;;;;4864050;29;20064;-81
2023/02/23 07:58:07;;;;;;;19.58;13.23;;;11.00;82.70;;;;;;4863701;29;20059;-81
2023/02/23 08:00:35;;;;;;;17.23;12.32;;;11.00;82.70;;;;;;4879021;29;20037;-81
2023/02/23 08:03:01;;;;;;;19.42;13.15;;;11.00;82.70;;;;;;4881080;29;20052;-82
2023/02/23 08:05:28;;;;;;;18.77;13.18;;;11.00;82.60;;;;;;4864030;29;20037;-81
2023/02/23 08:07:56;;;;;;;18.00;13.23;;;11.00;82.70;;;;;;4864031;29;20037;-81
2023/02/23 08:10:22;;;;;;;20.17;13.88;;;11.00;82.70;;;;;;4863930;29;20029;-83
2023/02/23 08:12:48;;;;;;;18.23;13.25;;;11.00;82.70;;;;;;4864556;29;20041;-81
2023/02/23 08:15:14;;;;;;;19.23;13.32;;;11.00;82.70;;;;;;4879484;29;20451;-82
2023/02/23 08:17:40;;;;;;;18.00;12.55;;;11.00;82.70;;;;;;4879445;29;20068;-82
2023/02/23 08:20:07;;;;;;;18.95;12.80;;;11.00;82.70;;;;;;4863896;29;20044;-81
2023/02/23 08:22:33;;;;;;;17.38;12.82;;;11.00;82.70;;;;;;4879510;29;20029;-82
2023/02/23 08:24:59;;;;;;;19.05;13.15;;;11.00;82.70;;;;;;4879318;29;20124;-82
2023/02/23 08:27:25;;;;;;;17.88;13.18;;;11.00;82.70;;;;;;4879834;29;20417;-82
2023/02/23 08:29:54;;;;;;;19.38;12.68;;;11.00;82.70;;;;;;4879327;29;20430;-81
2023/02/23 08:32:20;;;;;;;19.98;13.20;;;11.00;82.70;;;;;;4880028;29;20032;-82
2023/02/23 08:34:45;;;;;;;19.45;13.07;;;11.00;82.70;;;;;;4848268;29;20172;-82
2023/02/23 08:37:11;;;;;;;18.35;13.05;;;11.00;82.70;;;;;;4864069;29;20124;-82
2023/02/23 08:39:37;;;;;;;18.50;13.48;;;11.00;82.70;;;;;;4863775;29;20166;-82
2023/02/23 08:42:03;;;;;;;17.02;12.65;;;11.00;82.70;;;;;;4863815;29;20623;-82
2023/02/23 08:44:29;;;;;;;18.75;13.40;;;11.00;82.70;;;;;;4879878;29;20033;-82
2023/02/23 08:46:57;;;;;;;17.27;12.63;;;11.00;82.70;;;;;;4863654;29;20033;-82
2023/02/23 08:49:24;;;;;;;16.85;12.73;;;11.00;82.70;;;;;;4879032;29;20175;-82
2023/02/23 08:51:50;;;;;;;18.98;12.95;;;11.00;82.70;;;;;;4849010;29;20033;-82
2023/02/23 08:54:16;;;;;;;19.50;13.57;;;11.00;82.70;;;;;;4863368;29;20092;-82
2023/02/23 08:56:43;;;;;;;19.17;12.73;;;11.00;82.70;;;;;;4878887;29;20097;-82
2023/02/23 08:59:11;;;;;;;18.65;12.90;;;11.10;82.70;;;;;;4878810;29;20461;-81
2023/02/23 09:01:37;;;;;;;18.20;12.00;;;11.10;82.70;;;;;;4878919;29;20040;-82
2023/02/23 09:04:04;;;;;;;19.48;13.40;;;11.10;82.70;;;;;;4878825;29;20033;-81
2023/02/23 09:06:30;;;;;;;18.23;12.32;;;11.10;82.70;;;;;;4878613;29;20048;-82
2023/02/23 09:08:56;;;;;;;19.35;13.52;;;11.10;82.70;;;;;;4878595;29;20176;-83
2023/02/23 09:11:23;;;;;;;16.10;12.07;;;11.10;82.70;;;;;;4879947;29;20124;-81
2023/02/23 09:13:49;;;;;;;17.15;12.70;;;11.10;82.70;;;;;;4878839;29;20100;-83
2023/02/23 09:16:15;;;;;;;17.65;12.23;;;11.10;82.60;;;;;;4863593;29;20029;-82
2023/02/23 09:18:41;;;;;;;17.15;11.63;;;11.10;82.60;;;;;;4848127;29;20503;-82
2023/02/23 09:21:17;;;;;;;18.85;12.32;;;11.10;82.70;;;;;;4878835;29;20111;-82
2023/02/23 09:23:45;;;;;;;18.58;12.52;;;11.10;82.70;;;;;;4879923;29;20041;-82
2023/02/23 09:26:10;;;;;;;17.40;11.80;;;11.10;82.70;;;;;;4863480;29;20036;-81
2023/02/23 09:28:38;;;;;;;16.80;11.98;;;11.10;82.70;;;;;;4878894;29;20038;-83
2023/02/23 09:31:09;;;;;;;15.70;11.70;;;11.10;82.80;;;;;;4879483;29;20131;-81
2023/02/23 09:33:36;;;;;;;18.42;12.25;;;11.10;82.80;;;;;;4882748;29;20044;-84
2023/02/23 09:36:11;;;;;;;17.73;12.15;;;11.10;82.70;;;;;;4867525;29;20033;-83
2023/02/23 09:38:38;;;;;;;16.60;11.82;;;11.10;82.80;;;;;;4866443;29;20064;-82
2023/02/23 09:41:27;;;;;;;17.27;11.75;;;11.10;82.70;;;;;;4882210;29;20017;-82
2023/02/23 09:44:07;;;;;;;16.85;11.35;;;11.20;82.80;;;;;;4883423;29;20057;-83
2023/02/23 09:46:37;;;;;;;18.67;12.35;;;11.10;82.70;;;;;;4882416;29;20072;-82
2023/02/23 09:49:08;;;;;;;16.27;11.60;;;11.20;82.70;;;;;;4866669;29;20144;-82
2023/02/23 09:51:39;;;;;;;16.98;12.18;;;11.20;82.70;;;;;;4866040;29;20030;-82
2023/02/23 09:54:10;;;;;;;16.45;11.25;;;11.20;82.70;;;;;;4867321;29;20123;-83
2023/02/23 09:56:38;;;;;;;16.13;12.18;;;11.20;82.70;;;;;;4883538;29;20033;-82
2023/02/23 09:59:06;;;;;;;16.20;11.88;;;11.20;82.80;;;;;;4882699;29;20120;-82
2023/02/23 10:01:57;;;;;;;16.85;12.13;;;11.20;82.70;;;;;;4866407;29;20044;-83
2023/02/23 10:04:45;;;;;;;17.05;11.13;;;11.20;82.80;;;;;;4881669;29;20043;-82
2023/02/23 10:07:20;;;;;;;15.55;11.13;;;11.20;82.70;;;;;;4866977;29;20092;-82
2023/02/23 10:10:07;;;;;;;19.52;13.20;;;11.20;82.70;;;;;;4882320;29;20033;-83
2023/02/23 10:12:54;;;;;;;14.40;10.65;;;11.20;82.70;;;;;;4866630;29;20040;-83
2023/02/23 10:15:37;;;;;;;16.25;10.32;;;11.20;82.70;;;;;;4881938;29;20104;-83
2023/02/23 10:18:41;;;;;;;17.38;12.05;;;11.30;82.80;;;;;;4866167;29;20036;-82
2023/02/23 10:21:37;;;;;;;15.85;11.18;;;11.30;82.80;;;;;;4882859;29;20033;-82
2023/02/23 10:24:05;;;;;;;14.60;10.05;;;11.30;82.80;;;;;;4881310;29;20053;-82
2023/02/23 10:26:59;;;;;;;16.88;11.13;;;11.30;82.70;;;;;;4866391;29;20032;-83
2023/02/23 10:29:54;;;;;;;15.40;10.77;;;11.30;82.70;;;;;;4881886;29;20060;-83
2023/02/23 10:32:24;;;;;;;16.83;11.35;;;11.30;82.70;;;;;;4866551;29;20043;-83
2023/02/23 10:34:55;;;;;;;16.63;11.43;;;11.30;82.70;;;;;;4881601;29;20200;-83
2023/02/23 10:37:23;;;;;;;15.05;10.20;;;11.30;82.70;;;;;;4880866;29;20032;-83
2023/02/23 10:39:50;;;;;;;17.80;11.73;;;11.30;82.70;;;;;;4882404;29;20033;-83
2023/02/23 10:42:30;;;;;;;16.67;11.43;;;11.30;82.70;;;;;;4882228;29;20045;-83
2023/02/23 10:44:57;;;;;;;17.55;11.32;;;11.30;82.80;;;;;;4880924;29;20033;-83
2023/02/23 10:47:33;;;;;;;17.50;11.70;;;11.30;82.70;;;;;;4882494;29;20033;-83
2023/02/23 10:50:01;;;;;;;16.80;11.27;;;11.40;82.80;;;;;;4881212;29;20039;-82
2023/02/23 10:52:41;;;;;;;16.73;11.73;;;11.40;82.70;;;;;;4881295;29;20044;-82
2023/02/23 10:55:22;;;;;;;16.42;11.60;;;11.40;82.80;;;;;;4881003;29;20037;-82
2023/02/23 10:57:52;;;;;;;16.27;10.75;;;11.40;82.70;;;;;;4881627;29;20064;-83
2023/02/23 11:00:29;;;;;;;18.05;11.70;;;11.40;82.70;;;;;;4881023;29;20037;-83
2023/02/23 11:02:57;;;;;;;18.60;12.20;;;11.40;82.80;;;;;;4881935;29;20125;-83
2023/02/23 11:05:31;;;;;;;16.67;11.25;;;11.40;82.70;;;;;;4881132;29;20045;-83
2023/02/23 11:08:10;;;;;;;16.38;10.82;;;11.40;82.80;;;;;;4865470;29;20375;-82
2023/02/23 11:10:36;;;;;;;17.15;12.00;;;11.40;82.80;;;;;;4865529;29;20418;-83
2023/02/23 11:13:02;;;;;;;18.02;11.48;;;11.40;82.70;;;;;;4865179;29;20182;-81
2023/02/23 11:15:31;;;;;;;15.48;10.05;;;11.40;82.80;;;;;;4880127;29;20121;-81
2023/02/23 11:18:00;;;;;;;17.23;11.93;;;11.40;82.70;;;;;;4864698;29;20029;-82
2023/02/23 11:20:38;;;;;;;17.52;11.63;;;11.40;82.70;;;;;;4864685;29;20541;-81
2023/02/23 11:23:19;;;;;;;15.25;11.18;;;11.50;82.80;;;;;;4881937;29;20363;-82
2023/02/23 11:25:45;;;;;;;16.15;11.88;;;11.50;82.80;;;;;;4881629;29;20080;-81
2023/02/23 11:28:21;;;;;;;16.50;11.55;;;11.50;82.80;;;;;;4864197;29;20037;-83
2023/02/23 11:30:48;;;;;;;16.83;11.13;;;11.50;82.80;;;;;;4880203;29;20029;-84
2023/02/23 11:33:24;;;;;;;16.90;10.68;;;11.50;82.80;;;;;;4880887;29;20124;-82
2023/02/23 11:35:58;;;;;;;16.75;11.82;;;11.50;82.80;;;;;;4881198;29;20037;-83
2023/02/23 11:38:27;;;;;;;17.35;11.27;;;11.50;82.70;;;;;;4880327;29;20029;-83
2023/02/23 11:41:20;;;;;;;18.42;12.02;;;11.50;82.70;;;;;;4879691;29;20036;-82
2023/02/23 11:43:57;;;;;;;16.27;10.40;;;11.50;82.70;;;;;;4880382;29;20041;-83
2023/02/23 11:46:25;;;;;;;17.20;11.63;;;11.50;82.70;;;;;;4880276;29;20069;-83
2023/02/23 11:48:58;;;;;;;17.40;10.93;;;11.50;82.60;;;;;;4864458;29;20025;-82
2023/02/23 11:51:36;;;;;;;16.25;10.93;;;11.50;82.60;;;;;;4880346;29;20033;-82
2023/02/23 11:54:03;;;;;;;17.40;11.15;;;11.60;82.70;;;;;;4880101;29;20045;-82
2023/02/23 11:56:32;;;;;;;15.07;10.88;;;11.60;82.70;;;;;;4881201;29;20025;-83
2023/02/23 11:59:06;;;;;;;15.90;10.82;;;11.60;82.70;;;;;;4864614;29;20064;-85
2023/02/23 12:01:42;;;;;;;17.15;11.60;;;11.60;82.70;;;;;;4880271;29;20045;-83
2023/02/23 12:04:22;;;;;;;16.98;9.93;;;11.60;82.60;;;;;;4881495;29;20036;-85
2023/02/23 12:06:49;;;;;;;16.13;10.52;;;11.60;82.60;;;;;;4865009;29;20048;-82
2023/02/23 12:09:30;;;;;;;16.83;11.30;;;11.60;82.60;;;;;;4880667;29;20104;-85
2023/02/23 12:12:08;;;;;;;16.38;10.85;;;11.60;82.60;;;;;;4881237;29;20033;-85
2023/02/23 12:15:10;;;;;;;17.70;10.07;;;11.60;82.60;;;;;;4879869;29;20036;-82
2023/02/23 12:17:44;;;;;;;16.38;10.40;;;11.60;82.70;;;;;;4885674;29;20124;-83
2023/02/23 12:20:23;;;;;;;15.93;10.25;;;11.60;82.60;;;;;;4879907;29;20033;-85
2023/02/23 12:23:01;;;;;;;13.32;9.13;;;11.70;82.60;;;;;;4881099;29;20501;-84
2023/02/23 12:25:34;;;;;;;17.67;11.32;;;11.70;82.60;;;;;;4864934;29;20033;-85
2023/02/23 12:28:28;;;;;;;17.17;11.10;;;11.60;82.60;;;;;;4880917;29;20092;-85
2023/02/23 12:31:39;;;;;;;15.90;10.15;;;11.60;82.60;;;;;;4864959;29;20123;-84
2023/02/23 12:34:37;;;;;;;15.88;10.13;;;11.70;82.70;;;;;;4880776;29;20037;-82
2023/02/23 12:37:17;;;;;;;14.65;9.48;;;11.70;82.60;;;;;;4880451;29;20454;-82
2023/02/23 12:39:48;;;;;;;15.95;10.07;;;11.70;82.70;;;;;;4880789;29;20522;-82
2023/02/23 12:42:30;;;;;;;15.15;9.73;;;11.70;82.60;;;;;;4879499;29;20037;-82
2023/02/23 12:45:01;;;;;;;14.85;10.25;;;11.70;82.70;;;;;;4864157;29;20069;-82
2023/02/23 12:47:43;;;;;;;15.30;10.07;;;11.70;82.60;;;;;;4864024;29;20029;-83
2023/02/23 12:50:32;;;;;;;16.30;10.20;;;11.70;82.60;;;;;;4880040;29;20465;-83
2023/02/23 12:53:22;;;;;;;15.57;9.48;;;11.70;82.60;;;;;;4880676;29;20477;-83
2023/02/23 12:56:13;;;;;;;14.18;9.02;;;11.70;82.60;;;;;;4879979;29;20048;-82
2023/02/23 12:58:57;;;;;;;14.52;9.23;;;11.80;82.60;;;;;;4880641;29;20053;-84
2023/02/23 13:01:37;;;;;;;15.85;9.77;;;11.80;82.60;;;;;;4879572;29;20029;-82
2023/02/23 13:04:33;;;;;;;13.85;8.75;;;11.80;82.60;;;;;;4879528;29;20463;-84
2023/02/23 13:07:20;;;;;;;13.43;8.57;;;11.80;82.60;;;;;;4881890;29;20176;-85
2023/02/23 13:10:30;;;;;;;14.93;8.95;;;11.80;82.60;;;;;;4869160;29;20071;-84
2023/02/23 13:13:10;;;;;;;13.80;8.80;;;11.80;82.60;;;;;;4902146;29;20073;-82
2023/02/23 13:15:58;;;;;;;14.52;9.15;;;11.80;82.50;;;;;;4886023;29;20033;-84
2023/02/23 13:18:43;;;;;;;13.07;8.13;;;11.80;82.60;;;;;;4899888;29;20050;-84
2023/02/23 13:21:16;;;;;;;12.38;8.65;;;11.80;82.50;;;;;;4887643;29;20033;-84
2023/02/23 13:24:04;;;;;;;15.05;9.30;;;11.80;82.50;;;;;;4887961;29;20489;-85
2023/02/23 13:26:45;;;;;;;14.60;8.80;;;11.80;82.50;;;;;;4887437;29;20120;-83
2023/02/23 13:29:35;;;;;;;12.75;8.02;;;11.80;82.50;;;;;;4869059;29;20075;-88
2023/02/23 13:32:04;;;;;;;13.77;8.30;;;11.80;82.50;;;;;;4868052;29;20033;-86
2023/02/23 13:34:59;;;;;;;14.38;9.25;;;11.80;82.50;;;;;;4883166;29;20116;-82
2023/02/23 13:38:12;;;;;;;11.48;7.85;;;11.90;82.60;;;;;;4883264;29;20033;-83
2023/02/23 13:41:23;;;;;;;12.70;7.43;;;11.80;82.50;;;;;;4881809;29;20116;-83
2023/02/23 13:43:59;;;;;;;10.95;7.13;;;11.80;82.50;;;;;;4866061;29;20475;-83
2023/02/23 13:46:37;;;;;;;12.38;8.00;;;11.90;82.50;;;;;;4883493;29;20067;-82
2023/02/23 13:49:23;;;;;;;12.95;7.55;;;11.90;82.50;;;;;;4883617;29;20055;-82
2023/02/23 13:51:58;;;;;;;11.35;7.00;;;11.90;82.50;;;;;;4882833;29;20029;-83
2023/02/23 13:54:35;;;;;;;9.80;6.65;;;11.90;82.40;;;;;;4882257;29;20033;-82
2023/02/23 13:57:11;;;;;;;11.50;6.68;;;11.90;82.50;;;;;;4882401;29;20036;-83
2023/02/23 13:59:41;;;;;;;9.70;6.30;;;11.90;82.40;;;;;;4881478;29;20060;-83
2023/02/23 14:02:42;;;;;;;10.40;6.43;;;11.90;82.40;;;;;;4882553;29;20033;-84
2023/02/23 14:05:41;;;;;;;9.25;6.35;;;11.90;82.50;;;;;;4881903;29;20045;-82
2023/02/23 14:08:07;;;;;;;9.70;5.65;;;11.90;82.40;;;;;;4881216;29;20049;-83
2023/02/23 14:10:44;;;;;;;10.52;6.60;;;11.90;82.30;;;;;;4881773;29;20123;-82
2023/02/23 14:13:13;;;;;;;9.63;5.80;;;11.90;82.40;;;;;;4883021;29;20037;-82